ETD243 OMAA-OOMS
Flight info
| Callsign | ETD243 |
|---|---|
| Flight time | N/A |
| Altitude | 21000 |
| Route | ORNEL N685 LAKLU G216 MCT |
| Aircraft | A359/H-SDE2E3GHIJ3J4J5LM1ORWXY/LB1D1 |
Departure
| Time | N/A |
|---|---|
| Airport | Zayed International Airport (OMAA) |
Arrival
| Time | 2026-04-29 11:00 |
|---|---|
| Airport | Muscat International Airport (OOMS) |
| Time | Latitude | Longitude | Altitude | Speed | Heading |
|---|---|---|---|---|---|
| 2026-04-29 10:28 | 23.96313 | 55.57568 | 20812 ft | 479 kts | 117° |
| 2026-04-29 10:28 | 23.94873 | 55.60854 | 20807 ft | 478 kts | 119° |
| 2026-04-29 10:29 | 23.93382 | 55.64104 | 20808 ft | 478 kts | 120° |
| 2026-04-29 10:29 | 23.91866 | 55.67338 | 20808 ft | 478 kts | 120° |
| 2026-04-29 10:29 | 23.90343 | 55.70564 | 20810 ft | 478 kts | 120° |
| 2026-04-29 10:29 | 23.88816 | 55.73796 | 20812 ft | 478 kts | 120° |
| 2026-04-29 10:30 | 23.87297 | 55.77019 | 20808 ft | 478 kts | 120° |
| 2026-04-29 10:30 | 23.85784 | 55.80240 | 20816 ft | 478 kts | 120° |
| 2026-04-29 10:30 | 23.84261 | 55.83486 | 20822 ft | 478 kts | 120° |
| 2026-04-29 10:30 | 23.82749 | 55.86712 | 20819 ft | 478 kts | 120° |
| 2026-04-29 10:31 | 23.81238 | 55.89934 | 20816 ft | 477 kts | 120° |
| 2026-04-29 10:31 | 23.79720 | 55.93170 | 20819 ft | 477 kts | 120° |
| 2026-04-29 10:31 | 23.78207 | 55.96393 | 20822 ft | 477 kts | 120° |
| 2026-04-29 10:31 | 23.76691 | 55.99620 | 20827 ft | 477 kts | 120° |
| 2026-04-29 10:32 | 23.75196 | 56.02800 | 20828 ft | 477 kts | 120° |
| 2026-04-29 10:32 | 23.73662 | 56.06061 | 20830 ft | 477 kts | 120° |
| 2026-04-29 10:32 | 23.72168 | 56.09235 | 20837 ft | 477 kts | 120° |
| 2026-04-29 10:32 | 23.70652 | 56.12452 | 20837 ft | 477 kts | 120° |
| 2026-04-29 10:33 | 23.69117 | 56.15707 | 20838 ft | 476 kts | 120° |
| 2026-04-29 10:33 | 23.67618 | 56.18884 | 20841 ft | 476 kts | 120° |
| 2026-04-29 10:33 | 23.66106 | 56.22086 | 20840 ft | 476 kts | 120° |
| 2026-04-29 10:33 | 23.64585 | 56.25304 | 20837 ft | 476 kts | 120° |
| 2026-04-29 10:34 | 23.63071 | 56.28508 | 20846 ft | 476 kts | 120° |
| 2026-04-29 10:34 | 23.61556 | 56.31710 | 20848 ft | 475 kts | 120° |
| 2026-04-29 10:34 | 23.60040 | 56.34914 | 20846 ft | 475 kts | 120° |
| 2026-04-29 10:34 | 23.58525 | 56.38111 | 20847 ft | 475 kts | 120° |
| 2026-04-29 10:35 | 23.57009 | 56.41309 | 20845 ft | 476 kts | 120° |
| 2026-04-29 10:35 | 23.55487 | 56.44515 | 20844 ft | 476 kts | 120° |
| 2026-04-29 10:35 | 23.53974 | 56.47714 | 20845 ft | 475 kts | 120° |
| 2026-04-29 10:35 | 23.52457 | 56.50919 | 20846 ft | 475 kts | 120° |
| 2026-04-29 10:36 | 23.50942 | 56.54115 | 20844 ft | 475 kts | 120° |
| 2026-04-29 10:36 | 23.49423 | 56.57313 | 20845 ft | 475 kts | 120° |
| 2026-04-29 10:36 | 23.47905 | 56.60503 | 20846 ft | 475 kts | 120° |
| 2026-04-29 10:36 | 23.46388 | 56.63693 | 20844 ft | 475 kts | 120° |
| 2026-04-29 10:37 | 23.44869 | 56.66887 | 20848 ft | 475 kts | 120° |
| 2026-04-29 10:37 | 23.43351 | 56.70080 | 20852 ft | 475 kts | 120° |
| 2026-04-29 10:37 | 23.41832 | 56.73271 | 20851 ft | 475 kts | 120° |
| 2026-04-29 10:37 | 23.40310 | 56.76465 | 20856 ft | 475 kts | 120° |
| 2026-04-29 10:38 | 23.38793 | 56.79647 | 20857 ft | 475 kts | 120° |
| 2026-04-29 10:38 | 23.37274 | 56.82832 | 20857 ft | 474 kts | 120° |
| 2026-04-29 10:38 | 23.35873 | 56.86079 | 20859 ft | 477 kts | 112° |
| 2026-04-29 10:38 | 23.35082 | 56.89594 | 20867 ft | 480 kts | 97° |
| 2026-04-29 10:39 | 23.35109 | 56.93228 | 20865 ft | 481 kts | 85° |
| 2026-04-29 10:39 | 23.35578 | 56.96834 | 20864 ft | 481 kts | 80° |
| 2026-04-29 10:39 | 23.36234 | 57.00412 | 20865 ft | 482 kts | 78° |
| 2026-04-29 10:39 | 23.36959 | 57.03959 | 20867 ft | 482 kts | 77° |
| 2026-04-29 10:40 | 23.37694 | 57.07520 | 20861 ft | 482 kts | 77° |
| 2026-04-29 10:40 | 23.38410 | 57.11084 | 20866 ft | 482 kts | 78° |
| 2026-04-29 10:40 | 23.39098 | 57.14646 | 20858 ft | 482 kts | 78° |
| 2026-04-29 10:40 | 23.39771 | 57.18230 | 20855 ft | 482 kts | 78° |
| 2026-04-29 10:41 | 23.40429 | 57.21802 | 20859 ft | 482 kts | 79° |
| 2026-04-29 10:41 | 23.41080 | 57.25372 | 20855 ft | 482 kts | 79° |
| 2026-04-29 10:41 | 23.41729 | 57.28951 | 20851 ft | 482 kts | 79° |
| 2026-04-29 10:41 | 23.42379 | 57.32538 | 20847 ft | 482 kts | 79° |
| 2026-04-29 10:42 | 23.43025 | 57.36104 | 20748 ft | 480 kts | 79° |
| 2026-04-29 10:42 | 23.43668 | 57.39650 | 20538 ft | 472 kts | 79° |
| 2026-04-29 10:42 | 23.44295 | 57.43099 | 20371 ft | 456 kts | 79° |
| 2026-04-29 10:42 | 23.44896 | 57.46409 | 19815 ft | 450 kts | 79° |
| 2026-04-29 10:43 | 23.45503 | 57.49748 | 19106 ft | 448 kts | 79° |
| 2026-04-29 10:43 | 23.46111 | 57.53108 | 18408 ft | 446 kts | 79° |
| 2026-04-29 10:43 | 23.46708 | 57.56410 | 17674 ft | 443 kts | 79° |
| 2026-04-29 10:43 | 23.47290 | 57.59641 | 16979 ft | 439 kts | 79° |
| 2026-04-29 10:44 | 23.47872 | 57.62888 | 16281 ft | 434 kts | 79° |
| 2026-04-29 10:44 | 23.48449 | 57.66096 | 15594 ft | 429 kts | 79° |
| 2026-04-29 10:44 | 23.49017 | 57.69268 | 14917 ft | 425 kts | 79° |
| 2026-04-29 10:44 | 23.49579 | 57.72402 | 14253 ft | 420 kts | 79° |
| 2026-04-29 10:45 | 23.50138 | 57.75518 | 13564 ft | 416 kts | 79° |
| 2026-04-29 10:45 | 23.50340 | 57.76647 | 13285 ft | 415 kts | 78° |
| 2026-04-29 10:45 | 23.50588 | 57.78027 | 12968 ft | 413 kts | 78° |
| 2026-04-29 10:46 | 23.51133 | 57.81069 | 12274 ft | 408 kts | 78° |
| 2026-04-29 10:46 | 23.51295 | 57.81970 | 12071 ft | 406 kts | 78° |
| 2026-04-29 10:47 | 23.51567 | 57.83490 | 11726 ft | 403 kts | 78° |
| 2026-04-29 10:47 | 23.52095 | 57.86442 | 11150 ft | 397 kts | 78° |
| 2026-04-29 10:47 | 23.52613 | 57.89346 | 10993 ft | 377 kts | 78° |
| 2026-04-29 10:47 | 23.53101 | 57.92084 | 10863 ft | 360 kts | 78° |
| 2026-04-29 10:48 | 23.53568 | 57.94702 | 10733 ft | 343 kts | 78° |
| 2026-04-29 10:48 | 23.54011 | 57.97196 | 10606 ft | 329 kts | 78° |
| 2026-04-29 10:48 | 23.54438 | 57.99598 | 10477 ft | 316 kts | 78° |
| 2026-04-29 10:48 | 23.54851 | 58.01919 | 10350 ft | 309 kts | 78° |
| 2026-04-29 10:49 | 23.55252 | 58.04175 | 10207 ft | 298 kts | 78° |
| 2026-04-29 10:49 | 23.55641 | 58.06366 | 9981 ft | 293 kts | 77° |
| 2026-04-29 10:49 | 23.56035 | 58.08582 | 9717 ft | 305 kts | 77° |
| 2026-04-29 10:49 | 23.56444 | 58.10881 | 9612 ft | 311 kts | 77° |
| 2026-04-29 10:50 | 23.56850 | 58.13182 | 9246 ft | 309 kts | 78° |
| 2026-04-29 10:50 | 23.57258 | 58.15490 | 8722 ft | 310 kts | 77° |
| 2026-04-29 10:50 | 23.57664 | 58.17787 | 8325 ft | 308 kts | 77° |
| 2026-04-29 10:50 | 23.58068 | 58.20079 | 7982 ft | 306 kts | 77° |
| 2026-04-29 10:51 | 23.58468 | 58.22348 | 7652 ft | 306 kts | 77° |
| 2026-04-29 10:51 | 23.58871 | 58.24625 | 7323 ft | 305 kts | 77° |
| 2026-04-29 10:51 | 23.59454 | 58.26806 | 7022 ft | 302 kts | 65° |
| 2026-04-29 10:51 | 23.60326 | 58.28906 | 6754 ft | 300 kts | 62° |
| 2026-04-29 10:52 | 23.61227 | 58.30957 | 6472 ft | 300 kts | 62° |
| 2026-04-29 10:52 | 23.62122 | 58.33005 | 6206 ft | 298 kts | 62° |
| 2026-04-29 10:52 | 23.62997 | 58.35014 | 5822 ft | 296 kts | 62° |
| 2026-04-29 10:52 | 23.63873 | 58.37039 | 5425 ft | 294 kts | 62° |
| 2026-04-29 10:53 | 23.64754 | 58.39074 | 5057 ft | 292 kts | 62° |
| 2026-04-29 10:53 | 23.65608 | 58.41053 | 4727 ft | 291 kts | 62° |
| 2026-04-29 10:53 | 23.66465 | 58.43043 | 4457 ft | 287 kts | 62° |
| 2026-04-29 10:53 | 23.67294 | 58.44971 | 4315 ft | 275 kts | 62° |
| 2026-04-29 10:54 | 23.67951 | 58.46892 | 4171 ft | 266 kts | 77° |
| 2026-04-29 10:54 | 23.67861 | 58.48855 | 3988 ft | 261 kts | 108° |
| 2026-04-29 10:54 | 23.66897 | 58.50484 | 3725 ft | 255 kts | 140° |
| 2026-04-29 10:54 | 23.65372 | 58.51403 | 3556 ft | 248 kts | 165° |
| 2026-04-29 10:55 | 23.63722 | 58.51486 | 3363 ft | 234 kts | 199° |
| 2026-04-29 10:55 | 23.62455 | 58.50539 | 3184 ft | 216 kts | 238° |
| 2026-04-29 10:55 | 23.62067 | 58.49058 | 3068 ft | 198 kts | 272° |
| 2026-04-29 10:55 | 23.62100 | 58.47622 | 2999 ft | 182 kts | 273° |
| 2026-04-29 10:56 | 23.62095 | 58.46304 | 2980 ft | 165 kts | 271° |
| 2026-04-29 10:56 | 23.62055 | 58.45128 | 2971 ft | 147 kts | 270° |
| 2026-04-29 10:56 | 23.61998 | 58.44067 | 2970 ft | 134 kts | 270° |
| 2026-04-29 10:56 | 23.61936 | 58.43063 | 2982 ft | 132 kts | 269° |
| 2026-04-29 10:57 | 23.61866 | 58.42064 | 2943 ft | 135 kts | 267° |
| 2026-04-29 10:57 | 23.61747 | 58.41013 | 2646 ft | 143 kts | 264° |
| 2026-04-29 10:57 | 23.61599 | 58.39955 | 2402 ft | 137 kts | 265° |
| 2026-04-29 10:57 | 23.61468 | 58.38941 | 2128 ft | 134 kts | 265° |
| 2026-04-29 10:58 | 23.61381 | 58.37943 | 1888 ft | 132 kts | 271° |
| 2026-04-29 10:58 | 23.61291 | 58.36932 | 1597 ft | 137 kts | 271° |
| 2026-04-29 10:58 | 23.61235 | 58.35887 | 1352 ft | 135 kts | 271° |
| 2026-04-29 10:58 | 23.61168 | 58.34867 | 1133 ft | 134 kts | 272° |
| 2026-04-29 10:59 | 23.61127 | 58.33848 | 842 ft | 135 kts | 273° |
| 2026-04-29 10:59 | 23.61091 | 58.32837 | 617 ft | 133 kts | 269° |
| 2026-04-29 10:59 | 23.61046 | 58.31830 | 438 ft | 134 kts | 269° |
| 2026-04-29 10:59 | 23.60968 | 58.30791 | 283 ft | 138 kts | 268° |
| 2026-04-29 11:00 | 23.60892 | 58.29754 | 107 ft | 136 kts | 271° |
| 2026-04-29 11:00 | 23.60820 | 58.28739 | 11 ft | 129 kts | 270° |
| 2026-04-29 11:00 | 23.60782 | 58.27849 | 4 ft | 95 kts | 266° |
| 2026-04-29 11:00 | 23.60728 | 58.27444 | 5 ft | 42 kts | 261° |
| 2026-04-29 11:01 | 23.60714 | 58.27312 | 7 ft | 8 kts | 265° |
| 2026-04-29 11:01 | 23.60704 | 58.27217 | 7 ft | 18 kts | 259° |
| 2026-04-29 11:01 | 23.60675 | 58.27108 | 1 ft | 20 kts | 251° |
| 2026-04-29 11:01 | 23.60622 | 58.26999 | 4 ft | 15 kts | 237° |
| 2026-04-29 11:02 | 23.60553 | 58.26890 | 2 ft | 12 kts | 232° |
| 2026-04-29 11:02 | 23.60508 | 58.26821 | 0 ft | 0 kts | 234° |
| 2026-04-29 11:02 | 23.60473 | 58.26788 | 4 ft | 14 kts | 207° |
| 2026-04-29 11:02 | 23.60439 | 58.26786 | 4 ft | 3 kts | 159° |
| 2026-04-29 11:03 | 23.60420 | 58.26843 | 5 ft | 15 kts | 91° |
| 2026-04-29 11:03 | 23.60428 | 58.27002 | 5 ft | 27 kts | 85° |
| 2026-04-29 11:03 | 23.60446 | 58.27245 | 5 ft | 36 kts | 84° |
| 2026-04-29 11:03 | 23.60466 | 58.27483 | 4 ft | 28 kts | 85° |
| 2026-04-29 11:04 | 23.60484 | 58.27701 | 40 ft | 30 kts | 85° |
| 2026-04-29 11:04 | 23.60501 | 58.27922 | 40 ft | 24 kts | 85° |
| 2026-04-29 11:04 | 23.60517 | 58.28115 | 40 ft | 27 kts | 85° |
| 2026-04-29 11:04 | 23.60534 | 58.28316 | 40 ft | 22 kts | 85° |
| 2026-04-29 11:05 | 23.60533 | 58.28393 | 40 ft | 8 kts | 107° |
| 2026-04-29 11:05 | 23.60507 | 58.28425 | 40 ft | 9 kts | 147° |
| 2026-04-29 11:05 | 23.60416 | 58.28444 | 40 ft | 10 kts | 173° |
| 2026-04-29 11:05 | 23.60367 | 58.28448 | 40 ft | 9 kts | 175° |
| 2026-04-29 11:06 | 23.60337 | 58.28483 | 40 ft | 6 kts | 105° |
| 2026-04-29 11:06 | 23.60336 | 58.28515 | 40 ft | 7 kts | 84° |
| 2026-04-29 11:06 | 23.60339 | 58.28554 | 40 ft | 5 kts | 85° |
| 2026-04-29 11:06 | 23.60339 | 58.28556 | 40 ft | 0 kts | 86° |
| 2026-04-29 11:07 | 23.60340 | 58.28567 | 40 ft | 0 kts | 85° |
| 2026-04-29 11:07 | 23.60341 | 58.28573 | 40 ft | 0 kts | 84° |